Time;durP1;ratioP1;P1;durP2;ratioP2;P2;SDS_P1;SDS_P2;PMS_P1;PMS_P2;Temp;Humidity;BMP_temperature;BMP_pressure;BME280_temperature;BME280_humidity;BME280_pressure;Samples;Min_cycle;Max_cycle;Signal;HPM_P1;HPM_P2
2022/10/03 00:02:13;;;;;;;623.38;453.83;;;14.00;99.90;;;;;;5008650;28;20532;-78
2022/10/03 00:04:57;;;;;;;634.60;471.92;;;14.00;99.90;;;;;;5000494;28;20200;-79
2022/10/03 00:07:53;;;;;;;629.97;463.40;;;13.90;99.90;;;;;;5005979;28;20955;-79
2022/10/03 00:10:29;;;;;;;634.25;470.58;;;13.90;99.90;;;;;;4999917;28;20204;-75
2022/10/03 00:13:08;;;;;;;639.47;475.48;;;13.90;99.90;;;;;;5001980;28;20638;-79
2022/10/03 00:15:41;;;;;;;632.17;459.25;;;13.90;99.90;;;;;;5003150;28;20203;-78
2022/10/03 00:18:18;;;;;;;630.28;449.95;;;13.90;99.90;;;;;;4997299;28;20243;-76
2022/10/03 00:21:00;;;;;;;631.15;463.88;;;13.90;99.90;;;;;;5001806;28;20712;-75
2022/10/03 00:23:39;;;;;;;638.03;467.35;;;13.90;99.90;;;;;;4995473;28;20224;-75
2022/10/03 00:26:29;;;;;;;630.33;457.20;;;13.90;99.90;;;;;;4994543;28;20211;-76
2022/10/03 00:29:08;;;;;;;643.75;458.60;;;13.90;99.90;;;;;;5000022;28;20286;-76
2022/10/03 00:31:47;;;;;;;640.15;478.33;;;13.80;99.90;;;;;;5000819;28;20201;-76
2022/10/03 00:34:23;;;;;;;640.70;461.58;;;13.80;99.90;;;;;;4999434;28;20206;-76
2022/10/03 00:36:59;;;;;;;645.45;465.52;;;13.80;99.90;;;;;;5001904;28;20512;-76
2022/10/03 00:39:40;;;;;;;649.70;471.45;;;13.80;99.90;;;;;;5006260;28;20207;-75
2022/10/03 00:42:43;;;;;;;655.72;458.80;;;13.80;99.90;;;;;;5008470;28;20206;-75
2022/10/03 00:45:57;;;;;;;644.20;455.48;;;13.80;99.90;;;;;;5004096;28;20218;-75
2022/10/03 00:49:03;;;;;;;669.40;446.23;;;13.80;99.90;;;;;;5000638;28;20208;-76
2022/10/03 00:51:45;;;;;;;659.30;453.48;;;13.80;99.90;;;;;;5005101;28;20199;-77
2022/10/03 00:54:33;;;;;;;651.10;449.85;;;13.70;99.90;;;;;;5006545;28;20202;-77
2022/10/03 00:57:36;;;;;;;659.22;451.90;;;13.70;99.90;;;;;;4996153;28;20196;-75
2022/10/03 01:00:16;;;;;;;657.63;432.08;;;13.70;99.90;;;;;;5002412;28;20226;-80
2022/10/03 01:03:15;;;;;;;651.20;446.23;;;13.70;99.90;;;;;;5012144;28;20662;-78
2022/10/03 01:05:58;;;;;;;664.83;445.92;;;13.70;99.90;;;;;;5003265;28;20204;-79
2022/10/03 01:08:49;;;;;;;680.17;456.17;;;13.70;99.90;;;;;;5007176;28;20667;-77
2022/10/03 01:11:31;;;;;;;671.00;441.92;;;13.70;99.90;;;;;;5000908;28;20215;-76
2022/10/03 01:14:11;;;;;;;676.22;454.80;;;13.60;99.90;;;;;;5007754;28;20621;-80
2022/10/03 01:16:51;;;;;;;671.53;451.60;;;13.60;99.90;;;;;;5004956;28;20209;-75
2022/10/03 01:19:44;;;;;;;666.15;455.80;;;13.60;99.90;;;;;;5010134;28;20747;-78
2022/10/03 01:22:32;;;;;;;639.55;448.17;;;13.60;99.90;;;;;;5012508;28;20218;-88
2022/10/03 01:25:10;;;;;;;673.13;435.73;;;13.60;99.90;;;;;;5009193;28;20752;-79
2022/10/03 01:30:31;;;;;;;652.65;451.95;;;13.60;99.90;;;;;;5004686;28;20296;-76
2022/10/03 01:33:03;;;;;;;674.25;454.40;;;13.60;99.90;;;;;;5012903;28;20214;-78
2022/10/03 01:35:39;;;;;;;631.17;453.02;;;13.60;99.90;;;;;;5014347;28;20587;-77
2022/10/03 01:38:19;;;;;;;657.53;446.58;;;13.60;99.90;;;;;;5009458;28;20207;-80
2022/10/03 01:40:51;;;;;;;664.50;438.77;;;13.50;99.90;;;;;;4998405;28;20247;-81
2022/10/03 01:43:21;;;;;;;621.95;420.05;;;13.50;99.90;;;;;;4997964;28;20200;-79
2022/10/03 01:45:58;;;;;;;628.70;447.95;;;13.50;99.90;;;;;;5015014;28;20590;-77
2022/10/03 01:48:33;;;;;;;604.35;428.27;;;13.50;99.90;;;;;;5002149;28;20449;-76
2022/10/03 01:51:04;;;;;;;609.03;446.27;;;13.50;99.90;;;;;;5000367;28;20291;-75
2022/10/03 01:53:40;;;;;;;605.75;443.30;;;13.50;99.90;;;;;;5011257;28;20196;-76
2022/10/03 01:56:15;;;;;;;622.95;448.42;;;13.50;99.90;;;;;;5011687;28;20660;-76
2022/10/03 01:58:55;;;;;;;603.83;450.25;;;13.50;99.90;;;;;;5001951;28;20284;-79
2022/10/03 02:01:28;;;;;;;622.15;452.88;;;13.50;99.90;;;;;;5009242;28;20226;-77
2022/10/03 02:04:03;;;;;;;634.47;438.05;;;13.50;99.90;;;;;;5011524;28;20644;-79
2022/10/03 02:06:40;;;;;;;650.47;436.70;;;13.50;99.90;;;;;;5010676;28;20228;-79
2022/10/03 02:09:18;;;;;;;647.25;445.60;;;13.40;99.90;;;;;;5012112;28;20202;-74
2022/10/03 02:12:02;;;;;;;627.47;447.08;;;13.40;99.90;;;;;;5002418;28;20288;-79
2022/10/03 02:14:38;;;;;;;632.38;447.80;;;13.40;99.90;;;;;;5004468;28;20205;-76
2022/10/03 02:17:14;;;;;;;548.83;424.83;;;13.40;99.90;;;;;;4999444;28;20225;-76
2022/10/03 02:19:49;;;;;;;578.38;440.38;;;13.40;99.90;;;;;;5002270;28;20202;-80
2022/10/03 02:22:28;;;;;;;578.85;440.48;;;13.40;99.90;;;;;;5010887;28;20222;-79
2022/10/03 02:25:11;;;;;;;582.63;450.10;;;13.40;99.90;;;;;;5002458;28;20190;-79
2022/10/03 02:28:10;;;;;;;568.05;412.35;;;13.40;99.90;;;;;;5003049;28;20696;-75
2022/10/03 02:30:51;;;;;;;595.25;426.30;;;13.40;99.90;;;;;;4968962;28;20812;-75
2022/10/03 02:33:46;;;;;;;617.83;448.30;;;13.40;99.90;;;;;;5005384;28;21440;-74
2022/10/03 02:36:39;;;;;;;617.55;436.10;;;13.30;99.90;;;;;;5005978;28;20204;-81
2022/10/03 02:39:38;;;;;;;609.97;430.70;;;13.30;99.90;;;;;;5008156;28;20661;-75
2022/10/03 02:42:51;;;;;;;633.25;434.27;;;13.30;99.90;;;;;;4997807;28;20730;-75
2022/10/03 02:45:54;;;;;;;641.25;429.80;;;13.30;99.90;;;;;;5009607;28;20563;-75
2022/10/03 02:49:02;;;;;;;613.78;429.77;;;13.30;99.90;;;;;;5011515;28;20691;-74
2022/10/03 02:51:59;;;;;;;640.80;421.77;;;13.30;99.90;;;;;;4994762;28;20213;-75
2022/10/03 02:54:56;;;;;;;644.22;423.33;;;13.30;99.90;;;;;;5002702;28;20209;-75
2022/10/03 02:57:56;;;;;;;646.13;416.17;;;13.30;99.90;;;;;;5006543;28;20193;-75
2022/10/03 03:00:32;;;;;;;646.97;441.77;;;13.30;99.90;;;;;;5007290;28;20195;-74
2022/10/03 03:03:35;;;;;;;639.38;426.58;;;13.20;99.90;;;;;;5009920;28;20684;-80
2022/10/03 03:06:46;;;;;;;638.30;422.33;;;13.20;99.90;;;;;;4998927;28;20201;-75
2022/10/03 03:09:56;;;;;;;646.28;420.42;;;13.20;99.90;;;;;;4944941;29;20266;-78
2022/10/03 03:13:05;;;;;;;631.17;401.40;;;13.20;99.90;;;;;;4948215;29;20213;-76
2022/10/03 03:16:24;;;;;;;639.13;422.25;;;13.20;99.90;;;;;;4946440;28;20199;-79
2022/10/03 03:19:06;;;;;;;650.90;413.90;;;13.20;99.90;;;;;;4967220;28;20651;-76
2022/10/03 03:21:42;;;;;;;637.83;420.27;;;13.20;99.90;;;;;;4962875;28;20334;-76
2022/10/03 03:24:22;;;;;;;633.85;428.25;;;13.20;99.90;;;;;;4985632;28;20189;-78
2022/10/03 03:27:15;;;;;;;638.70;421.48;;;13.20;99.90;;;;;;5005287;28;20291;-75
2022/10/03 03:29:49;;;;;;;617.30;429.20;;;13.20;99.90;;;;;;5010695;28;20247;-75
2022/10/03 03:32:29;;;;;;;620.45;426.08;;;13.20;99.90;;;;;;5002270;28;20590;-78
2022/10/03 03:35:04;;;;;;;613.30;424.02;;;13.10;99.90;;;;;;5006250;28;20202;-77
2022/10/03 03:37:46;;;;;;;635.38;429.58;;;13.10;99.90;;;;;;5003911;28;20237;-74
2022/10/03 03:40:31;;;;;;;630.65;428.83;;;13.10;99.90;;;;;;5002281;28;20213;-74
2022/10/03 03:43:17;;;;;;;661.80;428.50;;;13.10;99.90;;;;;;5007701;28;20220;-78
2022/10/03 03:45:54;;;;;;;646.88;422.50;;;13.10;99.90;;;;;;5001968;28;20195;-77
2022/10/03 03:48:46;;;;;;;615.33;432.00;;;13.10;99.90;;;;;;5010849;28;20205;-76
2022/10/03 03:51:27;;;;;;;632.55;422.52;;;13.10;99.90;;;;;;5006104;28;20216;-78
2022/10/03 03:54:31;;;;;;;644.05;418.63;;;13.10;99.90;;;;;;5007878;28;20211;-77
2022/10/03 03:57:14;;;;;;;658.17;423.30;;;13.10;99.90;;;;;;4986072;28;20194;-78
2022/10/03 03:59:59;;;;;;;609.60;414.02;;;13.10;99.90;;;;;;5003850;28;20592;-76
2022/10/03 04:02:41;;;;;;;629.15;416.45;;;13.10;99.90;;;;;;5009863;28;20216;-77
2022/10/03 04:05:20;;;;;;;667.35;413.85;;;13.10;99.90;;;;;;5010200;28;20721;-76
2022/10/03 04:08:11;;;;;;;645.13;422.15;;;13.00;99.90;;;;;;5000334;28;20201;-77
2022/10/03 04:10:53;;;;;;;664.05;422.98;;;13.00;99.90;;;;;;4998578;28;20252;-78
2022/10/03 04:13:42;;;;;;;644.67;416.58;;;13.00;99.90;;;;;;4994331;28;20198;-76
2022/10/03 04:19:25;;;;;;;671.33;417.13;;;13.00;99.90;;;;;;4998119;28;20241;-76
2022/10/03 04:22:11;;;;;;;645.90;416.45;;;13.00;99.90;;;;;;5003808;28;20684;-76
2022/10/03 04:25:14;;;;;;;640.25;414.45;;;13.00;99.90;;;;;;4992751;28;20190;-81
2022/10/03 04:28:07;;;;;;;670.10;413.75;;;13.00;99.90;;;;;;4998485;28;20288;-75
2022/10/03 04:30:46;;;;;;;662.88;405.98;;;13.00;99.90;;;;;;5012908;28;20194;-77
2022/10/03 04:33:24;;;;;;;625.60;405.20;;;13.00;99.90;;;;;;5014275;28;20192;-78
2022/10/03 04:36:30;;;;;;;633.95;414.60;;;13.00;99.90;;;;;;5008806;28;20196;-77
2022/10/03 04:39:08;;;;;;;634.42;407.98;;;12.90;99.90;;;;;;5011122;28;20195;-77
2022/10/03 04:41:44;;;;;;;657.03;409.20;;;12.90;99.90;;;;;;5007746;28;20217;-77
2022/10/03 04:44:30;;;;;;;621.25;414.55;;;12.90;99.90;;;;;;5014231;28;20204;-81
2022/10/03 04:47:01;;;;;;;660.92;404.23;;;12.90;99.90;;;;;;5008641;28;20193;-77
2022/10/03 04:49:34;;;;;;;635.33;418.38;;;12.90;99.90;;;;;;5011078;28;20208;-76
2022/10/03 04:52:05;;;;;;;644.30;415.85;;;12.90;99.90;;;;;;5012217;28;20193;-77
2022/10/03 04:54:47;;;;;;;565.30;413.70;;;12.90;99.90;;;;;;5011155;28;20207;-76
2022/10/03 04:57:21;;;;;;;558.92;404.50;;;12.90;99.90;;;;;;5010823;28;20295;-79
2022/10/03 04:59:56;;;;;;;558.75;415.48;;;12.90;99.90;;;;;;5007486;28;20651;-77
2022/10/03 05:02:34;;;;;;;562.38;425.25;;;12.90;99.90;;;;;;5002888;28;20224;-79
2022/10/03 05:05:35;;;;;;;553.45;396.23;;;12.90;99.90;;;;;;5008899;28;20185;-75
2022/10/03 05:08:12;;;;;;;559.65;404.50;;;12.80;99.90;;;;;;4975488;28;20192;-76
2022/10/03 05:10:56;;;;;;;557.50;392.30;;;12.80;99.90;;;;;;5008480;28;20212;-78
2022/10/03 05:13:38;;;;;;;565.53;401.67;;;12.80;99.90;;;;;;5005616;28;20202;-77
2022/10/03 05:16:15;;;;;;;567.35;402.83;;;12.80;99.90;;;;;;5009754;28;20286;-77
2022/10/03 05:18:47;;;;;;;568.72;410.35;;;12.80;99.90;;;;;;5005867;28;20252;-78
2022/10/03 05:21:23;;;;;;;561.60;404.73;;;12.80;99.90;;;;;;5009261;28;20702;-81
2022/10/03 05:24:01;;;;;;;566.58;407.05;;;12.80;99.90;;;;;;5010304;28;20203;-77
2022/10/03 05:26:39;;;;;;;574.95;408.98;;;12.80;99.90;;;;;;4998561;28;20671;-77
2022/10/03 05:29:15;;;;;;;581.63;401.88;;;12.80;99.90;;;;;;4999506;28;20252;-78
2022/10/03 05:31:55;;;;;;;591.67;408.25;;;12.80;99.90;;;;;;4998714;28;20567;-77
2022/10/03 05:34:33;;;;;;;595.72;415.42;;;12.80;99.90;;;;;;4998534;28;20200;-78
2022/10/03 05:37:24;;;;;;;584.45;394.90;;;12.80;99.90;;;;;;5006103;28;20567;-76
2022/10/03 05:39:57;;;;;;;590.95;383.90;;;12.80;99.90;;;;;;5005924;28;20192;-77
2022/10/03 05:42:35;;;;;;;635.97;408.17;;;12.70;99.90;;;;;;5011638;28;20726;-79
2022/10/03 05:45:05;;;;;;;602.10;389.83;;;12.70;99.90;;;;;;5010727;28;20192;-77
2022/10/03 05:47:46;;;;;;;601.45;404.08;;;12.70;99.90;;;;;;5000561;28;20205;-79
2022/10/03 05:50:42;;;;;;;608.53;409.05;;;12.70;99.90;;;;;;5004966;28;20220;-76
2022/10/03 05:53:44;;;;;;;634.20;399.05;;;12.70;99.90;;;;;;5011606;28;20196;-77
2022/10/03 05:56:26;;;;;;;645.75;405.10;;;12.70;99.90;;;;;;5000541;28;20659;-76
2022/10/03 05:59:23;;;;;;;628.17;406.52;;;12.70;99.90;;;;;;5004733;28;20236;-76
2022/10/03 06:02:17;;;;;;;551.22;384.13;;;12.70;99.90;;;;;;5006113;28;20221;-75
2022/10/03 06:05:29;;;;;;;585.58;402.13;;;12.70;99.90;;;;;;4996291;28;20205;-77
2022/10/03 06:08:31;;;;;;;619.53;383.42;;;12.70;99.90;;;;;;4959488;28;20196;-76
2022/10/03 06:11:06;;;;;;;605.90;392.02;;;12.70;99.90;;;;;;5006511;28;20204;-75
2022/10/03 06:13:51;;;;;;;569.70;393.45;;;12.70;99.90;;;;;;5004474;28;20264;-75
2022/10/03 06:16:32;;;;;;;578.40;404.75;;;12.70;99.90;;;;;;5010362;28;20216;-79
2022/10/03 06:19:16;;;;;;;626.08;409.42;;;12.70;99.90;;;;;;5004933;28;20194;-76
2022/10/03 06:22:28;;;;;;;554.25;392.30;;;12.70;99.90;;;;;;5001252;28;20213;-77
2022/10/03 06:25:36;;;;;;;612.65;397.95;;;12.70;99.90;;;;;;5009561;28;20687;-76
2022/10/03 06:28:34;;;;;;;588.75;394.60;;;12.80;99.90;;;;;;5011689;28;20207;-75
2022/10/03 06:31:37;;;;;;;582.75;393.90;;;12.80;99.90;;;;;;5006485;28;20228;-77
2022/10/03 06:34:31;;;;;;;601.72;399.73;;;12.80;99.90;;;;;;4983743;28;20615;-76
2022/10/03 06:37:26;;;;;;;583.45;390.45;;;12.90;99.90;;;;;;4996844;28;20219;-74
2022/10/03 06:40:28;;;;;;;550.28;382.77;;;12.90;99.90;;;;;;5006244;28;20197;-77
2022/10/03 06:43:34;;;;;;;575.90;373.65;;;12.90;99.90;;;;;;5006961;28;20322;-77
2022/10/03 06:46:36;;;;;;;589.03;403.90;;;12.90;99.90;;;;;;4990825;28;20208;-77
2022/10/03 06:49:36;;;;;;;526.85;395.83;;;13.00;99.90;;;;;;5005908;28;20200;-77
2022/10/03 06:52:43;;;;;;;491.88;400.23;;;13.00;99.90;;;;;;5006723;28;20222;-79
2022/10/03 06:55:42;;;;;;;486.77;403.55;;;13.00;99.90;;;;;;4944853;29;20203;-76
2022/10/03 06:58:32;;;;;;;496.60;414.23;;;13.10;99.90;;;;;;4940134;29;20285;-77
2022/10/03 07:01:24;;;;;;;489.67;415.30;;;13.20;99.90;;;;;;4986444;28;20654;-77
2022/10/03 07:04:30;;;;;;;489.55;415.13;;;13.40;99.90;;;;;;5001516;28;20217;-76
2022/10/03 07:07:23;;;;;;;501.05;431.65;;;13.60;99.90;;;;;;4998917;28;20199;-81
2022/10/03 07:10:26;;;;;;;497.92;432.67;;;13.70;99.90;;;;;;5006086;28;20228;-78
2022/10/03 07:13:33;;;;;;;503.15;448.02;;;13.90;99.90;;;;;;5003687;28;20195;-81
2022/10/03 07:16:34;;;;;;;503.73;443.98;;;14.00;99.90;;;;;;5008757;28;20206;-81
2022/10/03 07:19:21;;;;;;;505.48;450.38;;;14.20;99.90;;;;;;5004736;28;20228;-81
2022/10/03 07:22:24;;;;;;;530.47;474.20;;;14.40;99.90;;;;;;4994966;28;20606;-81
2022/10/03 07:25:21;;;;;;;544.42;487.65;;;14.50;99.90;;;;;;4998840;28;20213;-85
2022/10/03 07:28:03;;;;;;;527.08;471.33;;;14.70;99.90;;;;;;4997346;28;20201;-82
2022/10/03 07:30:46;;;;;;;562.30;506.05;;;14.80;99.90;;;;;;5009334;28;20236;-79
2022/10/03 07:33:51;;;;;;;570.80;513.78;;;14.90;99.90;;;;;;5004039;28;20443;-80
2022/10/03 07:39:45;;;;;;;550.08;494.80;;;15.10;99.90;;;;;;5009825;28;20207;-79
2022/10/03 07:42:35;;;;;;;583.53;526.00;;;15.20;99.90;;;;;;4985038;28;20224;-80
2022/10/03 07:45:21;;;;;;;584.33;526.92;;;15.30;99.90;;;;;;5003292;28;20226;-81
2022/10/03 07:48:13;;;;;;;600.25;540.90;;;15.40;99.90;;;;;;5000668;28;20576;-80
2022/10/03 07:51:08;;;;;;;603.25;542.20;;;15.50;99.90;;;;;;5005778;28;20212;-82
2022/10/03 07:54:28;;;;;;;619.42;556.72;;;15.50;99.90;;;;;;5006352;28;20200;-81
2022/10/03 07:57:30;;;;;;;608.90;547.15;;;15.60;99.90;;;;;;4998043;28;20201;-81
2022/10/03 08:00:22;;;;;;;613.20;551.22;;;15.70;99.90;;;;;;5004783;28;20192;-80
2022/10/03 08:03:46;;;;;;;626.17;563.08;;;15.70;99.90;;;;;;5008111;28;20271;-80
2022/10/03 08:06:19;;;;;;;614.13;551.58;;;15.70;99.90;;;;;;5007759;28;20246;-81
2022/10/03 08:09:26;;;;;;;643.10;580.25;;;15.80;99.90;;;;;;5009556;28;20203;-80
2022/10/03 08:12:32;;;;;;;621.40;559.28;;;15.80;99.90;;;;;;5008484;28;20192;-79
2022/10/03 08:15:09;;;;;;;636.33;573.63;;;15.80;99.90;;;;;;5009704;28;20192;-79
2022/10/03 08:18:07;;;;;;;643.67;581.05;;;15.80;99.90;;;;;;5012395;28;20208;-81
2022/10/03 08:20:41;;;;;;;643.58;580.13;;;15.80;99.90;;;;;;5006983;28;20193;-81
2022/10/03 08:23:36;;;;;;;633.88;571.17;;;15.80;99.90;;;;;;5013397;28;20709;-77
2022/10/03 08:26:16;;;;;;;648.35;586.10;;;15.80;99.90;;;;;;5006249;28;20202;-77
2022/10/03 08:29:16;;;;;;;629.10;567.72;;;15.80;99.90;;;;;;5011095;28;20699;-77
2022/10/03 08:32:24;;;;;;;642.40;580.63;;;15.90;99.90;;;;;;5007243;28;20211;-79
2022/10/03 08:35:34;;;;;;;662.00;598.42;;;15.90;99.90;;;;;;5000957;28;20204;-78
2022/10/03 08:38:32;;;;;;;634.90;573.72;;;16.00;99.90;;;;;;4997419;28;20227;-80
2022/10/03 08:41:36;;;;;;;648.38;587.00;;;16.00;99.90;;;;;;5008051;28;20192;-76
2022/10/03 08:44:33;;;;;;;633.60;573.00;;;16.00;99.90;;;;;;5010609;28;20215;-78
2022/10/03 08:47:44;;;;;;;641.42;580.20;;;16.00;99.90;;;;;;5006907;28;22177;-77
2022/10/03 08:50:30;;;;;;;637.20;576.63;;;16.00;99.90;;;;;;5008539;28;20205;-77
2022/10/03 08:53:30;;;;;;;644.10;583.22;;;16.00;99.90;;;;;;5009309;28;20513;-77
2022/10/03 08:56:04;;;;;;;636.78;578.17;;;16.00;99.90;;;;;;4992705;28;20189;-78
2022/10/03 08:59:07;;;;;;;612.53;566.55;;;16.10;99.90;;;;;;5002801;28;21731;-75
2022/10/03 09:01:57;;;;;;;644.53;586.53;;;16.10;99.90;;;;;;5007010;28;20203;-76
2022/10/03 09:04:59;;;;;;;634.65;582.85;;;16.20;99.90;;;;;;5000006;28;20193;-77
2022/10/03 09:07:44;;;;;;;654.10;593.47;;;16.20;99.90;;;;;;5010689;28;20203;-76
2022/10/03 09:10:37;;;;;;;650.70;592.05;;;16.10;99.90;;;;;;5008287;28;20227;-77
2022/10/03 09:13:37;;;;;;;649.60;588.88;;;16.10;99.90;;;;;;4996155;28;20197;-77
2022/10/03 09:16:34;;;;;;;646.05;584.80;;;15.90;99.90;;;;;;5010747;28;20216;-75
2022/10/03 09:19:20;;;;;;;620.72;561.17;;;15.80;99.90;;;;;;5004900;28;20203;-79
2022/10/03 09:22:14;;;;;;;627.55;567.00;;;15.70;99.90;;;;;;5010917;28;20184;-79
2022/10/03 09:25:15;;;;;;;626.75;567.08;;;15.70;99.90;;;;;;5011952;28;20196;-78
2022/10/03 09:28:00;;;;;;;632.50;571.55;;;15.80;99.90;;;;;;5005978;28;20205;-76
2022/10/03 09:30:44;;;;;;;628.17;566.92;;;15.80;99.90;;;;;;5009953;28;20192;-75
2022/10/03 09:33:55;;;;;;;635.38;574.35;;;15.90;99.90;;;;;;5006101;28;20196;-74
2022/10/03 09:37:00;;;;;;;644.55;583.72;;;16.00;99.90;;;;;;5008859;28;20196;-76
2022/10/03 09:39:49;;;;;;;635.47;574.88;;;16.00;99.90;;;;;;5007513;28;20204;-83
2022/10/03 09:42:41;;;;;;;657.25;596.45;;;16.00;99.90;;;;;;5007552;28;20219;-79
2022/10/03 09:45:29;;;;;;;642.65;581.80;;;16.00;99.90;;;;;;5006454;28;20596;-82
2022/10/03 09:48:31;;;;;;;639.65;579.55;;;16.10;99.90;;;;;;5004475;28;20196;-79
2022/10/03 09:51:37;;;;;;;645.15;585.08;;;16.00;99.90;;;;;;5005522;28;20541;-77
2022/10/03 09:54:42;;;;;;;630.72;570.75;;;15.90;99.90;;;;;;5003201;28;20200;-78
2022/10/03 09:57:42;;;;;;;626.40;566.92;;;15.90;99.90;;;;;;5009478;28;20234;-78
2022/10/03 10:00:17;;;;;;;612.80;553.75;;;15.80;99.90;;;;;;4982486;28;20208;-81
2022/10/03 10:03:18;;;;;;;616.80;557.80;;;15.70;99.90;;;;;;5013948;28;20250;-75
2022/10/03 10:06:21;;;;;;;609.03;550.13;;;15.70;99.90;;;;;;5005292;28;20204;-79
2022/10/03 10:09:19;;;;;;;615.13;555.65;;;15.70;99.90;;;;;;5001142;28;20548;-80
2022/10/03 10:12:26;;;;;;;612.22;553.03;;;15.70;99.90;;;;;;5008265;28;20288;-78
2022/10/03 10:15:17;;;;;;;605.50;546.92;;;15.70;99.90;;;;;;5007030;28;20520;-76
2022/10/03 10:18:17;;;;;;;599.38;541.05;;;15.70;99.90;;;;;;5007907;28;20703;-78
2022/10/03 10:21:14;;;;;;;617.53;558.67;;;15.70;99.90;;;;;;4998756;28;20558;-79
2022/10/03 10:23:54;;;;;;;613.47;553.95;;;15.70;99.90;;;;;;4965256;28;20572;-80
2022/10/03 10:27:10;;;;;;;620.65;561.78;;;15.70;99.90;;;;;;5008863;28;20212;-76
2022/10/03 10:30:07;;;;;;;615.55;556.22;;;15.70;99.90;;;;;;4963714;28;20300;-77
2022/10/03 10:33:16;;;;;;;635.63;575.50;;;15.70;99.90;;;;;;4963932;28;20238;-76
2022/10/03 10:36:15;;;;;;;602.80;544.40;;;15.80;99.90;;;;;;4999419;28;20192;-77
2022/10/03 10:39:16;;;;;;;587.95;530.67;;;15.80;99.90;;;;;;5001368;28;20685;-75
2022/10/03 10:42:28;;;;;;;605.50;548.22;;;15.80;99.90;;;;;;5006836;28;20598;-78
2022/10/03 10:45:37;;;;;;;606.60;549.03;;;15.80;99.90;;;;;;4999393;28;20196;-78
2022/10/03 10:48:37;;;;;;;602.47;544.95;;;15.80;99.90;;;;;;4966714;28;20220;-78
2022/10/03 10:51:54;;;;;;;591.58;535.45;;;15.80;99.90;;;;;;5008628;28;20246;-78
2022/10/03 10:55:05;;;;;;;598.92;542.25;;;15.70;99.90;;;;;;4989749;28;20205;-78
2022/10/03 10:58:31;;;;;;;601.72;544.88;;;15.70;99.90;;;;;;4983169;28;20257;-78
2022/10/03 11:01:28;;;;;;;582.55;526.30;;;15.70;99.90;;;;;;5000389;28;20203;-76
2022/10/03 11:04:29;;;;;;;594.63;538.00;;;15.60;99.90;;;;;;5006798;28;20212;-79
2022/10/03 11:07:30;;;;;;;602.97;546.13;;;15.60;99.90;;;;;;4994500;28;20224;-77
2022/10/03 11:10:29;;;;;;;594.90;537.95;;;15.60;99.90;;;;;;5006496;28;20212;-80
2022/10/03 11:13:30;;;;;;;593.95;537.28;;;15.60;99.90;;;;;;5006033;28;22225;-76
2022/10/03 11:16:47;;;;;;;607.58;550.00;;;15.60;99.90;;;;;;5001785;28;20279;-82
2022/10/03 11:19:46;;;;;;;598.58;541.63;;;15.60;99.90;;;;;;4998128;28;20239;-76
2022/10/03 11:23:02;;;;;;;581.97;525.60;;;15.60;99.90;;;;;;5001490;28;20208;-76
2022/10/03 11:26:01;;;;;;;588.83;532.10;;;15.60;99.90;;;;;;4983433;28;20251;-78
2022/10/03 11:29:17;;;;;;;600.58;543.53;;;15.60;99.90;;;;;;4993588;28;20679;-76
2022/10/03 11:32:17;;;;;;;598.08;541.08;;;15.60;99.90;;;;;;4940297;28;20199;-78
2022/10/03 11:35:19;;;;;;;597.13;540.22;;;15.60;99.90;;;;;;5007392;28;20193;-79
2022/10/03 11:37:53;;;;;;;591.53;534.78;;;15.70;99.90;;;;;;4996734;28;20681;-79
2022/10/03 11:40:33;;;;;;;610.83;553.75;;;15.70;99.90;;;;;;5009126;28;20200;-78
2022/10/03 11:43:23;;;;;;;606.30;549.30;;;15.60;99.90;;;;;;5000477;28;20563;-79
2022/10/03 11:45:54;;;;;;;607.35;550.55;;;15.70;99.90;;;;;;4994042;28;20200;-76
2022/10/03 11:48:38;;;;;;;616.67;559.25;;;15.70;99.90;;;;;;5004209;28;20222;-76
2022/10/03 11:51:10;;;;;;;595.70;538.63;;;15.70;99.90;;;;;;5001328;28;20228;-77
2022/10/03 11:53:50;;;;;;;621.53;564.10;;;15.70;99.90;;;;;;4999843;28;20214;-77
2022/10/03 11:56:38;;;;;;;611.35;554.00;;;15.70;99.90;;;;;;5005303;28;20200;-80
2022/10/03 11:59:30;;;;;;;618.97;561.60;;;15.70;99.90;;;;;;5002094;28;20555;-78
2022/10/03 12:02:23;;;;;;;615.20;558.17;;;15.70;99.90;;;;;;5010132;28;20653;-79
2022/10/03 12:04:56;;;;;;;613.83;556.47;;;15.70;99.90;;;;;;5000358;28;20220;-79
2022/10/03 12:10:45;;;;;;;636.13;578.33;;;15.70;99.90;;;;;;5002156;28;20243;-77
2022/10/03 12:13:15;;;;;;;606.70;549.60;;;15.80;99.90;;;;;;5001320;28;20204;-79
2022/10/03 12:15:46;;;;;;;608.10;551.08;;;15.80;99.90;;;;;;5011222;28;20250;-80
2022/10/03 12:18:19;;;;;;;623.10;565.63;;;15.80;99.90;;;;;;5000930;28;20649;-76
2022/10/03 12:21:03;;;;;;;619.67;562.63;;;15.80;99.90;;;;;;4996177;28;20197;-79
2022/10/03 12:23:44;;;;;;;606.15;549.00;;;15.80;99.90;;;;;;5003624;28;20702;-75
2022/10/03 12:26:17;;;;;;;607.33;550.33;;;15.80;99.90;;;;;;5004182;28;20189;-79
2022/10/03 12:28:48;;;;;;;623.83;566.40;;;15.80;99.90;;;;;;5004791;28;20192;-76
2022/10/03 12:31:23;;;;;;;628.33;570.58;;;15.80;99.90;;;;;;5008944;28;20572;-75
2022/10/03 12:33:54;;;;;;;620.45;563.35;;;15.90;99.90;;;;;;5006396;28;20192;-81
2022/10/03 12:36:30;;;;;;;617.15;560.03;;;15.90;99.90;;;;;;5001196;28;20231;-79
2022/10/03 12:39:09;;;;;;;627.97;570.75;;;15.90;99.90;;;;;;5005709;28;20188;-78
2022/10/03 12:41:57;;;;;;;632.15;574.40;;;15.90;99.90;;;;;;5003969;28;20201;-77
2022/10/03 12:44:37;;;;;;;632.97;575.17;;;16.00;99.90;;;;;;5008411;28;20208;-76
2022/10/03 12:47:18;;;;;;;642.53;584.22;;;16.00;99.90;;;;;;5006581;28;20200;-77
2022/10/03 12:49:53;;;;;;;632.38;573.90;;;16.00;99.90;;;;;;5011223;28;20204;-77
2022/10/03 12:52:25;;;;;;;643.20;584.63;;;16.00;99.90;;;;;;5009077;28;20200;-77
2022/10/03 12:55:06;;;;;;;633.17;574.53;;;16.00;99.90;;;;;;5004530;28;20200;-77
2022/10/03 12:57:54;;;;;;;635.10;576.80;;;16.00;99.90;;;;;;5004990;28;20194;-77
2022/10/03 13:00:25;;;;;;;625.22;566.25;;;16.00;99.90;;;;;;5012973;28;20205;-78
2022/10/03 13:03:19;;;;;;;617.45;559.25;;;16.00;99.90;;;;;;5012063;28;20193;-80
2022/10/03 13:06:20;;;;;;;631.35;572.53;;;16.00;99.90;;;;;;5006551;28;20193;-77
2022/10/03 13:09:03;;;;;;;632.08;573.38;;;16.00;99.90;;;;;;5003456;28;20611;-81
2022/10/03 13:11:39;;;;;;;628.97;569.78;;;16.10;99.90;;;;;;5008590;28;20275;-74
2022/10/03 13:14:22;;;;;;;629.00;570.10;;;16.00;99.90;;;;;;5010270;28;20205;-76
2022/10/03 13:16:59;;;;;;;638.97;580.58;;;16.00;99.90;;;;;;5011038;28;20699;-80
2022/10/03 13:19:33;;;;;;;635.83;577.38;;;16.00;99.90;;;;;;5005829;28;20266;-77
2022/10/03 13:22:06;;;;;;;642.20;583.78;;;16.10;99.90;;;;;;5002312;28;20193;-78
2022/10/03 13:24:38;;;;;;;643.67;584.97;;;16.10;99.90;;;;;;4998812;28;20778;-76
2022/10/03 13:27:34;;;;;;;631.47;573.58;;;16.10;99.90;;;;;;5009134;28;20216;-78
2022/10/03 13:30:06;;;;;;;636.78;578.42;;;16.10;99.90;;;;;;5000721;28;20640;-74
2022/10/03 13:32:37;;;;;;;650.92;592.20;;;16.10;99.90;;;;;;5008287;28;20193;-81
2022/10/03 13:38:45;;;;;;;625.05;567.15;;;16.10;99.90;;;;;;5009109;28;20195;-76
2022/10/03 13:41:24;;;;;;;622.83;564.58;;;16.10;99.90;;;;;;5008004;28;20196;-85
2022/10/03 13:44:00;;;;;;;621.75;566.58;;;16.10;99.90;;;;;;5005678;28;20642;-80
2022/10/03 13:46:37;;;;;;;635.10;579.33;;;16.10;99.90;;;;;;5006080;28;20603;-83
2022/10/03 13:49:17;;;;;;;616.88;565.05;;;16.10;99.90;;;;;;5009714;28;20231;-76
2022/10/03 13:51:51;;;;;;;658.92;602.85;;;16.10;99.90;;;;;;5008426;28;20199;-75
2022/10/03 13:54:40;;;;;;;639.17;583.33;;;16.10;99.90;;;;;;5004352;28;20219;-75
2022/10/03 13:57:15;;;;;;;635.08;579.70;;;16.20;99.90;;;;;;5007473;28;20196;-74
2022/10/03 14:00:03;;;;;;;634.10;578.47;;;16.20;99.90;;;;;;5006873;28;20586;-77
2022/10/03 14:02:50;;;;;;;629.08;572.95;;;16.20;99.90;;;;;;5001729;28;20208;-79
2022/10/03 14:05:34;;;;;;;637.30;581.60;;;16.20;99.90;;;;;;5003825;28;20231;-80
2022/10/03 14:08:11;;;;;;;626.67;571.67;;;16.20;99.90;;;;;;5013171;28;20266;-75
2022/10/03 14:11:17;;;;;;;626.50;570.58;;;16.20;99.90;;;;;;5004200;28;20196;-76